Minburn, IA

9:54 AM CST on March 01, 2015 (GMT -0600)
Boone Municipal | Change Station
CLOSE
Current Station
Airport
Location: Boone,
Elevation: 1161 ft
Nearby Weather Stations

Elev 1161 ft 42.05 °N, 93.85 °W | Updated 19 minutes ago

Partly Cloudy
Partly Cloudy
23 °F
Feels Like 14 °F
N
8
Wind Variable Wind from West
Gusts 18 mph

Today
High -- | Low -- °F
--% Chance of Precip.
Yesterday
High -- | Low -- °F
Precip. -- in
6:51 AM 6:06 PM
Waxing Gibbous, 86% visible
Pressure 30.33 in
Visibility 10.0 miles
Clouds Few 1600 ft
Mostly Cloudy 12000 ft
Windchill 14 °F
Dew Point 18 °F
Humidity 80%
Rainfall 0.00 in
Snow Depth Not available.
UV 1 out of 12
Pollen .50 out of 12
Air Quality Not available.
Flu Activity Not available.
METAR KBNW 011535Z AUTO 26007G16KT 10SM FEW016 BKN120 M05/M08 A3033 RMK AO2

More Conditions Fewer Conditions

Pressure 30.33 in
Visibility 10.0 miles
Clouds Few 1600 ft
Mostly Cloudy 12000 ft
Windchill 14 °F
Dew Point 18 °F
Humidity 80%
Rainfall 0.00 in
Snow Depth Not available.
UV 1 out of 12
Pollen .50 out of 12
Air Quality Not available.
Flu Activity Not available.
METAR KBNW 011535Z AUTO 26007G16KT 10SM FEW016 BKN120 M05/M08 A3033 RMK AO2

More Conditions Fewer Conditions

10-Day Weather Forecast

Almanac

Astronomy

Mar. 01, 2015 Rise Set
Actual Time
Civil Twilight
Nautical Twilight
Astronomical Twilight
Moon
Length of Visible Light
Length of Day
Tomorrow will be .
, % of the Moon is Illuminated

Today's Extremes

State Highs State Lows

Community

WunderPhotos

Upload Photos

1,801,435 photos uploaded!

WunderBlogs® & News

Nearby

Air Quality

  Air Quality AQ Index Pollutant
Not available.

Snow Depth

Station Depth Elevation

Earthquake Activity

City Distance Mag. Time & Date
Minimum magnitude displayed is 2.5.

Coastal Water Temperatures

Place Temperature

Nearby Weather Stations